createdAt,value
2022-07-30T00:02:59.436Z,101240.81
2022-07-30T00:06:21.455Z,101238.31
2022-07-30T00:09:43.412Z,101264.22
2022-07-30T00:13:05.238Z,101253.13
2022-07-30T00:16:28.335Z,101256.66
2022-07-30T00:19:50.369Z,101247.38
2022-07-30T00:23:12.623Z,101262.16
2022-07-30T00:26:34.443Z,101260.53
2022-07-30T00:29:56.158Z,101258.00
2022-07-30T00:33:19.336Z,101259.81
2022-07-30T00:36:41.452Z,101258.16
2022-07-30T00:40:03.508Z,101265.25
2022-07-30T00:43:26.113Z,101251.41
2022-07-30T00:46:47.926Z,101248.19
2022-07-30T00:50:13.128Z,101255.19
2022-07-30T00:53:35.249Z,101246.63
2022-07-30T00:56:57.649Z,101255.31
2022-07-30T01:00:19.829Z,101255.31
2022-07-30T01:03:41.588Z,101254.53
2022-07-30T01:07:04.970Z,101257.16
2022-07-30T01:10:27.272Z,101255.50
2022-07-30T01:13:50.126Z,101248.56
2022-07-30T01:17:12.282Z,101246.03
2022-07-30T01:20:38.420Z,101232.38
2022-07-30T01:24:11.019Z,101230.69
2022-07-30T01:27:36.486Z,101223.78
2022-07-30T01:31:00.141Z,101240.16
2022-07-30T01:34:23.556Z,101236.88
2022-07-30T01:37:46.401Z,101235.25
2022-07-30T01:41:09.483Z,101235.16
2022-07-30T01:44:34.350Z,101231.78
2022-07-30T01:47:59.545Z,101196.94
2022-07-30T01:51:21.924Z,101226.66
2022-07-30T01:54:46.300Z,101233.53
2022-07-30T01:58:10.396Z,101218.25
2022-07-30T02:01:33.901Z,101225.84
2022-07-30T02:04:55.992Z,101216.69
2022-07-30T02:08:23.536Z,101225.19
2022-07-30T02:12:05.713Z,101227.75
2022-07-30T02:15:32.878Z,101218.56
2022-07-30T02:19:06.217Z,101229.56
2022-07-30T02:22:34.879Z,101217.66
2022-07-30T02:26:00.301Z,101225.53
2022-07-30T02:29:25.142Z,101232.50
2022-07-30T02:32:50.128Z,101224.78
2022-07-30T02:36:14.927Z,101227.31
2022-07-30T02:39:38.688Z,101236.94
2022-07-30T02:43:01.880Z,101242.78
2022-07-30T02:46:26.487Z,101240.97
2022-07-30T02:49:50.825Z,101241.78
2022-07-30T02:53:15.891Z,101249.56
2022-07-30T02:56:40.319Z,101238.16
2022-07-30T03:00:03.962Z,101232.88
2022-07-30T03:03:29.638Z,101238.69
2022-07-30T03:06:52.749Z,101242.00
2022-07-30T03:10:17.516Z,101244.41
2022-07-30T03:13:39.586Z,101248.56
2022-07-30T03:17:04.644Z,101240.53
2022-07-30T03:20:30.886Z,101244.66
2022-07-30T03:23:56.725Z,101244.63
2022-07-30T03:27:20.766Z,101244.44
2022-07-30T03:30:44.965Z,101247.63
2022-07-30T03:34:07.857Z,101251.75
2022-07-30T03:37:31.463Z,101256.03
2022-07-30T03:40:54.348Z,101244.09
2022-07-30T03:44:18.043Z,101242.53
2022-07-30T03:47:42.279Z,101243.09
2022-07-30T03:51:07.137Z,101248.22
2022-07-30T03:54:29.305Z,101254.34
2022-07-30T03:57:52.058Z,101244.41
2022-07-30T04:01:15.907Z,101247.84
2022-07-30T04:04:38.231Z,101244.13
2022-07-30T04:08:00.128Z,101250.78
2022-07-30T04:11:41.248Z,101241.78
2022-07-30T04:16:06.017Z,101244.94
2022-07-30T04:18:51.811Z,101249.97
2022-07-30T04:22:18.225Z,101240.88
2022-07-30T04:25:41.308Z,101254.63
2022-07-30T04:29:05.874Z,101240.25
2022-07-30T04:32:27.963Z,101249.38
2022-07-30T04:35:52.481Z,101246.09
2022-07-30T04:39:14.970Z,101247.94
2022-07-30T04:42:38.169Z,101242.88
2022-07-30T04:46:00.273Z,101241.94
2022-07-30T04:49:24.232Z,101240.38
2022-07-30T04:52:47.825Z,101236.47
2022-07-30T04:56:12.410Z,101237.16
2022-07-30T04:59:37.405Z,101234.03
2022-07-30T05:03:00.336Z,101239.59
2022-07-30T05:06:23.238Z,101240.81
2022-07-30T05:09:47.109Z,101224.50
2022-07-30T05:13:13.129Z,101235.06
2022-07-30T05:16:35.465Z,101236.72
2022-07-30T05:19:57.267Z,101224.78
2022-07-30T05:23:19.529Z,101217.47
2022-07-30T05:26:43.207Z,101232.25
2022-07-30T05:30:06.027Z,101202.56
2022-07-30T05:33:40.950Z,101193.19
2022-07-30T05:37:04.741Z,101217.34
2022-07-30T05:40:27.180Z,101216.41
2022-07-30T05:43:55.873Z,101221.19
2022-07-30T05:47:21.016Z,101211.84
2022-07-30T05:50:44.573Z,101217.78
2022-07-30T05:54:06.775Z,101221.78
2022-07-30T05:57:28.870Z,101222.97
2022-07-30T06:00:52.280Z,101216.91
2022-07-30T06:04:14.166Z,101223.38
2022-07-30T06:07:36.097Z,101215.53
2022-07-30T06:10:57.987Z,101206.53
2022-07-30T06:14:19.922Z,101218.94
2022-07-30T06:17:45.095Z,101203.56
2022-07-30T06:21:18.917Z,101204.50
2022-07-30T06:24:41.154Z,101210.31
2022-07-30T06:28:20.963Z,101203.88
2022-07-30T06:31:45.832Z,101214.19
2022-07-30T06:35:10.142Z,101208.44
2022-07-30T06:38:32.120Z,101203.72
2022-07-30T06:41:54.026Z,101206.09
2022-07-30T06:45:16.005Z,101191.72
2022-07-30T06:48:38.834Z,101205.88
2022-07-30T06:52:02.118Z,101211.41
2022-07-30T06:55:24.141Z,101203.38
2022-07-30T06:58:46.009Z,101190.25
2022-07-30T07:02:08.462Z,101200.34
2022-07-30T07:05:30.901Z,101186.38
2022-07-30T07:08:54.278Z,101199.91
2022-07-30T07:12:16.281Z,101197.66
2022-07-30T07:15:38.247Z,101197.44
2022-07-30T07:19:00.352Z,101200.09
2022-07-30T07:22:22.147Z,101192.34
2022-07-30T07:25:45.498Z,101193.69
2022-07-30T07:29:07.687Z,101189.28
2022-07-30T07:32:29.601Z,101186.81
2022-07-30T07:35:51.805Z,101183.34
2022-07-30T07:39:14.980Z,101174.38
2022-07-30T07:42:38.340Z,101160.84
2022-07-30T07:46:00.619Z,101174.88
2022-07-30T07:49:22.507Z,101176.53
2022-07-30T07:52:44.440Z,101184.91
2022-07-30T07:56:08.639Z,101168.59
2022-07-30T07:59:36.062Z,101173.53
2022-07-30T08:03:01.603Z,101181.84
2022-07-30T08:06:23.459Z,101159.25
2022-07-30T08:09:45.323Z,101173.22
2022-07-30T08:13:07.169Z,101178.06
2022-07-30T08:16:50.682Z,101182.66
2022-07-30T08:20:14.964Z,101178.22
2022-07-30T08:23:42.145Z,101176.03
2022-07-30T08:27:05.617Z,101177.44
2022-07-30T08:30:27.962Z,101178.25
2022-07-30T08:33:51.508Z,101172.53
2022-07-30T08:37:14.118Z,101171.94
2022-07-30T08:40:37.193Z,101161.63
2022-07-30T08:44:02.059Z,101157.88
2022-07-30T08:47:29.318Z,101149.03
2022-07-30T08:50:53.236Z,101161.41
2022-07-30T08:54:15.118Z,101164.31
2022-07-30T08:57:37.205Z,101159.84
2022-07-30T09:00:59.930Z,101156.28
2022-07-30T09:04:21.842Z,101163.66
2022-07-30T09:07:44.973Z,101161.00
2022-07-30T09:11:07.395Z,101152.19
2022-07-30T09:14:30.703Z,101149.22
2022-07-30T09:17:56.908Z,101148.41
2022-07-30T09:21:22.391Z,101143.41
2022-07-30T09:24:45.702Z,101144.94
2022-07-30T09:28:16.293Z,101151.69
2022-07-30T09:31:54.314Z,101153.53
2022-07-30T09:35:18.131Z,101147.03
2022-07-30T09:38:47.894Z,101148.06
2022-07-30T09:42:21.035Z,101145.09
2022-07-30T09:45:57.350Z,101145.56
2022-07-30T09:49:20.760Z,101144.16
2022-07-30T09:52:49.041Z,101143.34
2022-07-30T09:56:26.348Z,101133.47
2022-07-30T09:59:50.036Z,101138.38
2022-07-30T10:03:33.555Z,101135.88
2022-07-30T10:07:03.620Z,101134.47
2022-07-30T10:10:31.217Z,101140.69
2022-07-30T10:13:56.627Z,101150.44
2022-07-30T10:17:21.581Z,101147.28
2022-07-30T10:20:44.535Z,101141.31
2022-07-30T10:24:08.070Z,101147.16
2022-07-30T10:27:32.068Z,101149.88
2022-07-30T10:30:55.885Z,101132.75
2022-07-30T10:34:23.970Z,101139.34
2022-07-30T10:37:52.955Z,101154.94
2022-07-30T10:41:43.305Z,101159.19
2022-07-30T10:45:19.885Z,101162.66
2022-07-30T10:48:42.430Z,101153.34
2022-07-30T10:52:05.856Z,101155.53
2022-07-30T10:55:36.526Z,101153.22
2022-07-30T10:59:05.088Z,101158.44
2022-07-30T11:02:31.512Z,101155.28
2022-07-30T11:06:14.321Z,101157.00
2022-07-30T11:09:40.781Z,101147.06
2022-07-30T11:13:03.667Z,101150.63
2022-07-30T11:16:46.248Z,101141.38
2022-07-30T11:20:12.247Z,101139.75
2022-07-30T11:23:39.505Z,101135.66
2022-07-30T11:27:03.480Z,101135.53
2022-07-30T11:30:39.109Z,101138.97
2022-07-30T11:34:26.858Z,101133.44
2022-07-30T11:38:04.425Z,101135.16
2022-07-30T11:41:27.202Z,101109.53
2022-07-30T11:44:51.059Z,101129.06
2022-07-30T11:48:14.306Z,101124.31
2022-07-30T11:51:42.422Z,101117.91
2022-07-30T11:55:05.412Z,101118.22
2022-07-30T11:58:29.772Z,101121.47
2022-07-30T12:01:57.005Z,101120.69
2022-07-30T12:05:25.870Z,101112.69
2022-07-30T12:08:48.665Z,101114.25
2022-07-30T12:12:23.774Z,101120.41
2022-07-30T12:15:48.048Z,101126.13
2022-07-30T12:19:11.611Z,101121.38
2022-07-30T12:22:34.822Z,101120.09
2022-07-30T12:25:58.118Z,101114.47
2022-07-30T12:29:19.924Z,101113.66
2022-07-30T12:32:42.742Z,101119.88
2022-07-30T12:36:06.603Z,101108.31
2022-07-30T12:39:28.754Z,101113.16
2022-07-30T12:42:52.204Z,101095.47
2022-07-30T12:46:16.518Z,101105.63
2022-07-30T12:49:48.968Z,101094.97
2022-07-30T12:53:13.562Z,101100.81
2022-07-30T12:56:36.123Z,101093.22
2022-07-30T13:00:08.770Z,101092.63
2022-07-30T13:03:39.345Z,101102.38
2022-07-30T13:07:05.476Z,101095.47
2022-07-30T13:10:31.603Z,101086.91
2022-07-30T13:13:54.287Z,101097.69
2022-07-30T13:17:16.245Z,101085.59
2022-07-30T13:20:38.261Z,101089.72
2022-07-30T13:24:00.757Z,101086.38
2022-07-30T13:27:24.271Z,101086.31
2022-07-30T13:30:46.896Z,101088.44
2022-07-30T13:34:09.545Z,101089.28
2022-07-30T13:37:38.045Z,101094.38
2022-07-30T13:41:03.021Z,101088.50
2022-07-30T13:44:26.389Z,101087.50
2022-07-30T13:47:48.644Z,101084.22
2022-07-30T13:51:10.983Z,101066.50
2022-07-30T13:54:32.772Z,101068.84
2022-07-30T13:57:54.642Z,101078.13
2022-07-30T14:01:18.527Z,101076.72
2022-07-30T14:04:40.459Z,101077.00
2022-07-30T14:08:02.503Z,101077.31
2022-07-30T14:11:24.411Z,101065.25
2022-07-30T14:14:46.201Z,101069.44
2022-07-30T14:18:09.580Z,101070.16
2022-07-30T14:21:31.940Z,101065.56
2022-07-30T14:24:54.383Z,101061.91
2022-07-30T14:28:16.633Z,101064.44
2022-07-30T14:31:39.016Z,101062.94
2022-07-30T14:35:02.762Z,101060.41
2022-07-30T14:38:26.080Z,101069.25
2022-07-30T14:41:48.330Z,101053.81
2022-07-30T14:45:15.287Z,101055.63
2022-07-30T14:48:37.426Z,101056.66
2022-07-30T14:52:01.014Z,101063.25
2022-07-30T14:55:23.395Z,101060.75
2022-07-30T14:58:45.679Z,101060.91
2022-07-30T15:02:10.727Z,101037.06
2022-07-30T15:05:33.015Z,101060.69
2022-07-30T15:08:56.649Z,101058.84
2022-07-30T15:12:23.485Z,101043.69
2022-07-30T15:15:46.155Z,101032.16
2022-07-30T15:19:08.169Z,101050.84
2022-07-30T15:22:30.153Z,101039.28
2022-07-30T15:25:53.565Z,101039.16
2022-07-30T15:29:16.140Z,101052.75
2022-07-30T15:32:38.636Z,101053.00
2022-07-30T15:36:00.933Z,101048.66
2022-07-30T15:39:23.240Z,101042.63
2022-07-30T15:42:46.830Z,101033.88
2022-07-30T15:46:08.858Z,101043.28
2022-07-30T15:49:30.945Z,101053.09
2022-07-30T15:52:52.940Z,101051.41
2022-07-30T15:56:15.843Z,101042.59
2022-07-30T15:59:39.590Z,101048.22
2022-07-30T16:03:01.575Z,101059.34
2022-07-30T16:06:24.099Z,101053.31
2022-07-30T16:09:46.259Z,101049.50
2022-07-30T16:13:08.561Z,101038.56
2022-07-30T16:16:32.211Z,101046.56
2022-07-30T16:19:56.581Z,101047.22
2022-07-30T16:23:21.580Z,101046.81
2022-07-30T16:26:44.020Z,101047.72
2022-07-30T16:30:06.718Z,101042.50
2022-07-30T16:33:30.371Z,101036.84
2022-07-30T16:36:52.546Z,101038.47
2022-07-30T16:40:16.019Z,101044.06
2022-07-30T16:43:38.365Z,101046.28
2022-07-30T16:47:00.298Z,101039.56
2022-07-30T16:50:23.807Z,101038.00
2022-07-30T16:53:45.764Z,101041.59
2022-07-30T16:57:08.352Z,101040.84
2022-07-30T17:00:32.543Z,101038.66
2022-07-30T17:03:54.307Z,101030.88
2022-07-30T17:07:17.492Z,101035.50
2022-07-30T17:10:39.468Z,101031.59
2022-07-30T17:14:03.004Z,101026.94
2022-07-30T17:17:25.853Z,101025.94
2022-07-30T17:20:47.878Z,101028.41
2022-07-30T17:24:13.720Z,101038.81
2022-07-30T17:27:36.198Z,101033.56
2022-07-30T17:30:58.306Z,101036.44
2022-07-30T17:34:21.626Z,101033.03
2022-07-30T17:37:43.528Z,101034.38
2022-07-30T17:41:11.767Z,101046.75
2022-07-30T17:44:35.775Z,101036.16
2022-07-30T17:48:01.727Z,101032.13
2022-07-30T17:51:24.155Z,101035.81
2022-07-30T17:54:46.313Z,101045.31
2022-07-30T17:58:13.388Z,101047.47
2022-07-30T18:01:35.702Z,101038.84
2022-07-30T18:04:57.631Z,101048.28
2022-07-30T18:08:19.956Z,101054.00
2022-07-30T18:11:43.953Z,101052.38
2022-07-30T18:15:08.655Z,101046.16
2022-07-30T18:18:30.738Z,101050.75
2022-07-30T18:21:52.679Z,101046.91
2022-07-30T18:25:18.584Z,101015.22
2022-07-30T18:28:41.299Z,101050.34
2022-07-30T18:32:05.090Z,101054.28
2022-07-30T18:35:27.067Z,101038.91
2022-07-30T18:38:49.913Z,101046.91
2022-07-30T18:42:13.209Z,101056.31
2022-07-30T18:45:37.142Z,101065.88
2022-07-30T18:49:10.837Z,101051.97
2022-07-30T18:52:42.895Z,101069.16
2022-07-30T18:56:05.350Z,101050.13
2022-07-30T18:59:27.505Z,101067.69
2022-07-30T19:02:49.450Z,101051.91
2022-07-30T19:06:12.797Z,101070.91
2022-07-30T19:09:35.201Z,101081.75
2022-07-30T19:12:57.688Z,101083.16
2022-07-30T19:16:20.782Z,101093.38
2022-07-30T19:19:42.780Z,101093.69
2022-07-30T19:23:07.717Z,101090.44
2022-07-30T19:26:30.112Z,101073.28
2022-07-30T19:29:51.922Z,101078.75
2022-07-30T19:33:15.737Z,101067.31
2022-07-30T19:36:37.874Z,101084.53
2022-07-30T19:40:05.927Z,101088.66
2022-07-30T19:43:28.932Z,101086.09
2022-07-30T19:46:56.678Z,101084.25
2022-07-30T19:50:27.157Z,101080.63
2022-07-30T19:53:49.463Z,101091.03
2022-07-30T19:57:12.914Z,101085.50
2022-07-30T20:00:35.718Z,101085.53
2022-07-30T20:04:01.133Z,101084.78
2022-07-30T20:07:27.469Z,101092.03
2022-07-30T20:10:49.941Z,101097.78
2022-07-30T20:14:16.236Z,101105.25
2022-07-30T20:17:38.195Z,101065.66
2022-07-30T20:21:02.894Z,101076.50
2022-07-30T20:24:25.881Z,101106.84
2022-07-30T20:27:48.039Z,101103.72
2022-07-30T20:31:12.355Z,101098.06
2022-07-30T20:34:35.782Z,101097.50
2022-07-30T20:37:58.183Z,101101.44
2022-07-30T20:41:20.356Z,101102.16
2022-07-30T20:44:49.323Z,101101.63
2022-07-30T20:48:17.374Z,101112.69
2022-07-30T20:51:50.337Z,101104.69
2022-07-30T20:55:14.555Z,101100.16
2022-07-30T20:58:38.431Z,101109.25
2022-07-30T21:02:03.812Z,101120.19
2022-07-30T21:05:27.806Z,101114.63
2022-07-30T21:08:53.684Z,101114.28
2022-07-30T21:12:17.018Z,101111.31
2022-07-30T21:15:45.538Z,101118.63
2022-07-30T21:19:20.869Z,101084.66
2022-07-30T21:22:46.275Z,101113.09
2022-07-30T21:26:13.295Z,101098.19
2022-07-30T21:29:35.905Z,101116.78
2022-07-30T21:32:59.232Z,101124.09
2022-07-30T21:36:24.888Z,101131.34
2022-07-30T21:39:48.582Z,101122.13
2022-07-30T21:43:10.812Z,101135.22
2022-07-30T21:46:33.362Z,101131.91
2022-07-30T21:49:55.487Z,101130.44
2022-07-30T21:53:29.713Z,101129.88
2022-07-30T21:57:01.065Z,101141.66
2022-07-30T22:00:44.709Z,101123.09
2022-07-30T22:04:08.468Z,101131.75
2022-07-30T22:07:31.159Z,101137.97
2022-07-30T22:10:54.409Z,101135.56
2022-07-30T22:14:17.886Z,101130.59
2022-07-30T22:18:00.587Z,101129.22
2022-07-30T22:21:23.018Z,101132.91
2022-07-30T22:24:44.885Z,101129.00
2022-07-30T22:28:08.957Z,101134.47
2022-07-30T22:31:39.474Z,101123.06
2022-07-30T22:35:01.959Z,101137.13
2022-07-30T22:38:24.917Z,101138.34
2022-07-30T22:41:46.629Z,101138.44
2022-07-30T22:45:09.425Z,101144.91
2022-07-30T22:48:33.181Z,101120.09
2022-07-30T22:52:01.982Z,101151.31
2022-07-30T22:55:34.978Z,101153.28
2022-07-30T22:58:57.468Z,101152.59
2022-07-30T23:02:19.649Z,101156.19
2022-07-30T23:05:56.323Z,101145.28
2022-07-30T23:09:19.263Z,101158.41
2022-07-30T23:12:43.271Z,101150.84
2022-07-30T23:16:06.950Z,101148.59
2022-07-30T23:19:29.352Z,101145.25
2022-07-30T23:22:53.016Z,101154.25
2022-07-30T23:26:15.146Z,101144.31
2022-07-30T23:29:37.440Z,101151.31
2022-07-30T23:32:59.195Z,101155.78
2022-07-30T23:36:20.931Z,101151.72
2022-07-30T23:39:44.409Z,101148.53
2022-07-30T23:43:06.356Z,101145.47
2022-07-30T23:46:28.166Z,101140.81
2022-07-30T23:49:50.884Z,101151.25
2022-07-30T23:53:12.718Z,101152.19
2022-07-30T23:56:35.984Z,101139.38
2022-07-30T23:59:57.973Z,101138.81
